sensor_id;sensor_type;location;lat;lon;timestamp;P1;durP1;ratioP1;P2;durP2;ratioP2
2656;SDS011;1338;48.176;11.792;2023-01-29T00:02:25;22.77;;;16.00;;
2656;SDS011;1338;48.176;11.792;2023-01-29T00:04:54;20.83;;;15.07;;
2656;SDS011;1338;48.176;11.792;2023-01-29T00:07:24;21.90;;;14.73;;
2656;SDS011;1338;48.176;11.792;2023-01-29T00:09:52;22.23;;;13.80;;
2656;SDS011;1338;48.176;11.792;2023-01-29T00:12:22;21.47;;;15.23;;
2656;SDS011;1338;48.176;11.792;2023-01-29T00:14:50;24.20;;;15.23;;
2656;SDS011;1338;48.176;11.792;2023-01-29T00:17:18;20.67;;;13.30;;
2656;SDS011;1338;48.176;11.792;2023-01-29T00:19:46;28.00;;;16.20;;
2656;SDS011;1338;48.176;11.792;2023-01-29T00:22:15;22.00;;;14.63;;
2656;SDS011;1338;48.176;11.792;2023-01-29T00:24:43;24.70;;;15.47;;
2656;SDS011;1338;48.176;11.792;2023-01-29T00:27:12;19.83;;;13.67;;
2656;SDS011;1338;48.176;11.792;2023-01-29T00:29:41;25.50;;;17.07;;
2656;SDS011;1338;48.176;11.792;2023-01-29T00:32:27;23.47;;;16.53;;
2656;SDS011;1338;48.176;11.792;2023-01-29T00:34:57;19.90;;;14.33;;
2656;SDS011;1338;48.176;11.792;2023-01-29T00:37:25;20.50;;;14.80;;
2656;SDS011;1338;48.176;11.792;2023-01-29T00:39:53;21.53;;;14.00;;
2656;SDS011;1338;48.176;11.792;2023-01-29T00:42:22;23.10;;;14.90;;
2656;SDS011;1338;48.176;11.792;2023-01-29T00:45:11;15.80;;;12.10;;
2656;SDS011;1338;48.176;11.792;2023-01-29T00:47:39;20.93;;;14.47;;
2656;SDS011;1338;48.176;11.792;2023-01-29T00:50:08;20.40;;;14.43;;
2656;SDS011;1338;48.176;11.792;2023-01-29T00:52:38;23.00;;;14.83;;
2656;SDS011;1338;48.176;11.792;2023-01-29T00:55:08;22.23;;;15.23;;
2656;SDS011;1338;48.176;11.792;2023-01-29T00:57:37;18.17;;;13.40;;
2656;SDS011;1338;48.176;11.792;2023-01-29T01:00:07;20.03;;;15.10;;
2656;SDS011;1338;48.176;11.792;2023-01-29T01:02:38;19.67;;;14.00;;
2656;SDS011;1338;48.176;11.792;2023-01-29T01:05:24;18.30;;;13.13;;
2656;SDS011;1338;48.176;11.792;2023-01-29T01:07:54;19.00;;;12.87;;
2656;SDS011;1338;48.176;11.792;2023-01-29T01:10:24;20.33;;;14.10;;
2656;SDS011;1338;48.176;11.792;2023-01-29T01:12:54;19.97;;;14.00;;
2656;SDS011;1338;48.176;11.792;2023-01-29T01:15:24;18.33;;;13.53;;
2656;SDS011;1338;48.176;11.792;2023-01-29T01:17:55;21.20;;;14.90;;
2656;SDS011;1338;48.176;11.792;2023-01-29T01:20:26;19.20;;;15.00;;
2656;SDS011;1338;48.176;11.792;2023-01-29T01:22:55;15.77;;;12.07;;
2656;SDS011;1338;48.176;11.792;2023-01-29T01:25:24;16.50;;;13.00;;
2656;SDS011;1338;48.176;11.792;2023-01-29T01:27:54;19.10;;;13.60;;
2656;SDS011;1338;48.176;11.792;2023-01-29T01:30:23;18.10;;;12.93;;
2656;SDS011;1338;48.176;11.792;2023-01-29T01:32:55;19.60;;;14.40;;
2656;SDS011;1338;48.176;11.792;2023-01-29T01:35:23;18.20;;;12.97;;
2656;SDS011;1338;48.176;11.792;2023-01-29T01:37:51;17.63;;;12.47;;
2656;SDS011;1338;48.176;11.792;2023-01-29T01:40:20;20.20;;;14.23;;
2656;SDS011;1338;48.176;11.792;2023-01-29T01:42:50;18.77;;;13.50;;
2656;SDS011;1338;48.176;11.792;2023-01-29T01:45:22;20.57;;;14.20;;
2656;SDS011;1338;48.176;11.792;2023-01-29T01:47:53;17.80;;;13.30;;
2656;SDS011;1338;48.176;11.792;2023-01-29T01:50:27;17.60;;;12.83;;
2656;SDS011;1338;48.176;11.792;2023-01-29T01:52:58;18.17;;;12.80;;
2656;SDS011;1338;48.176;11.792;2023-01-29T01:55:31;19.33;;;12.57;;
2656;SDS011;1338;48.176;11.792;2023-01-29T01:58:03;17.97;;;12.97;;
2656;SDS011;1338;48.176;11.792;2023-01-29T02:00:37;18.40;;;13.57;;
2656;SDS011;1338;48.176;11.792;2023-01-29T02:03:07;15.50;;;11.63;;
2656;SDS011;1338;48.176;11.792;2023-01-29T02:05:55;19.17;;;12.50;;
2656;SDS011;1338;48.176;11.792;2023-01-29T02:08:44;18.00;;;12.93;;
2656;SDS011;1338;48.176;11.792;2023-01-29T02:11:37;16.33;;;12.10;;
2656;SDS011;1338;48.176;11.792;2023-01-29T02:14:05;16.37;;;13.63;;
2656;SDS011;1338;48.176;11.792;2023-01-29T02:16:34;17.63;;;12.60;;
2656;SDS011;1338;48.176;11.792;2023-01-29T02:19:06;13.80;;;11.90;;
2656;SDS011;1338;48.176;11.792;2023-01-29T02:21:49;15.83;;;11.93;;
2656;SDS011;1338;48.176;11.792;2023-01-29T02:24:43;17.27;;;12.27;;
2656;SDS011;1338;48.176;11.792;2023-01-29T02:27:27;15.03;;;11.70;;
2656;SDS011;1338;48.176;11.792;2023-01-29T02:30:07;16.20;;;12.67;;
2656;SDS011;1338;48.176;11.792;2023-01-29T02:32:41;15.40;;;11.97;;
2656;SDS011;1338;48.176;11.792;2023-01-29T02:35:25;15.90;;;11.30;;
2656;SDS011;1338;48.176;11.792;2023-01-29T02:38:00;14.10;;;11.40;;
2656;SDS011;1338;48.176;11.792;2023-01-29T02:40:39;13.67;;;11.70;;
2656;SDS011;1338;48.176;11.792;2023-01-29T02:43:15;16.50;;;12.20;;
2656;SDS011;1338;48.176;11.792;2023-01-29T02:45:53;16.50;;;13.10;;
2656;SDS011;1338;48.176;11.792;2023-01-29T02:48:28;15.73;;;12.13;;
2656;SDS011;1338;48.176;11.792;2023-01-29T02:51:05;16.60;;;13.13;;
2656;SDS011;1338;48.176;11.792;2023-01-29T02:53:42;15.43;;;12.27;;
2656;SDS011;1338;48.176;11.792;2023-01-29T02:56:17;18.63;;;13.23;;
2656;SDS011;1338;48.176;11.792;2023-01-29T02:58:51;16.20;;;11.63;;
2656;SDS011;1338;48.176;11.792;2023-01-29T03:01:28;14.50;;;10.87;;
2656;SDS011;1338;48.176;11.792;2023-01-29T03:04:05;15.07;;;11.07;;
2656;SDS011;1338;48.176;11.792;2023-01-29T03:06:38;14.10;;;10.77;;
2656;SDS011;1338;48.176;11.792;2023-01-29T03:09:11;16.30;;;12.67;;
2656;SDS011;1338;48.176;11.792;2023-01-29T03:11:47;15.67;;;12.00;;
2656;SDS011;1338;48.176;11.792;2023-01-29T03:14:21;14.83;;;11.37;;
2656;SDS011;1338;48.176;11.792;2023-01-29T03:17:18;20.20;;;13.07;;
2656;SDS011;1338;48.176;11.792;2023-01-29T03:19:49;16.20;;;11.87;;
2656;SDS011;1338;48.176;11.792;2023-01-29T03:22:20;15.43;;;11.83;;
2656;SDS011;1338;48.176;11.792;2023-01-29T03:24:51;15.17;;;11.30;;
2656;SDS011;1338;48.176;11.792;2023-01-29T03:27:44;15.53;;;12.07;;
2656;SDS011;1338;48.176;11.792;2023-01-29T03:30:41;15.27;;;11.40;;
2656;SDS011;1338;48.176;11.792;2023-01-29T03:33:39;14.63;;;12.30;;
2656;SDS011;1338;48.176;11.792;2023-01-29T03:36:13;16.33;;;12.07;;
2656;SDS011;1338;48.176;11.792;2023-01-29T03:38:45;15.77;;;12.00;;
2656;SDS011;1338;48.176;11.792;2023-01-29T03:41:16;19.90;;;13.37;;
2656;SDS011;1338;48.176;11.792;2023-01-29T03:43:51;17.13;;;12.40;;
2656;SDS011;1338;48.176;11.792;2023-01-29T03:46:28;16.03;;;11.73;;
2656;SDS011;1338;48.176;11.792;2023-01-29T03:49:06;15.90;;;12.60;;
2656;SDS011;1338;48.176;11.792;2023-01-29T03:51:44;16.83;;;11.80;;
2656;SDS011;1338;48.176;11.792;2023-01-29T03:54:21;15.87;;;14.07;;
2656;SDS011;1338;48.176;11.792;2023-01-29T03:56:54;15.30;;;12.93;;
2656;SDS011;1338;48.176;11.792;2023-01-29T03:59:30;18.70;;;13.67;;
2656;SDS011;1338;48.176;11.792;2023-01-29T04:02:10;19.00;;;13.37;;
2656;SDS011;1338;48.176;11.792;2023-01-29T04:04:46;18.83;;;12.80;;
2656;SDS011;1338;48.176;11.792;2023-01-29T04:07:19;16.40;;;13.50;;
2656;SDS011;1338;48.176;11.792;2023-01-29T04:10:00;18.13;;;13.37;;
2656;SDS011;1338;48.176;11.792;2023-01-29T04:12:35;17.87;;;13.40;;
2656;SDS011;1338;48.176;11.792;2023-01-29T04:15:05;17.97;;;13.43;;
2656;SDS011;1338;48.176;11.792;2023-01-29T04:17:38;17.33;;;13.10;;
2656;SDS011;1338;48.176;11.792;2023-01-29T04:20:17;16.87;;;13.37;;
2656;SDS011;1338;48.176;11.792;2023-01-29T04:22:47;18.53;;;12.90;;
2656;SDS011;1338;48.176;11.792;2023-01-29T04:25:19;17.20;;;12.50;;
2656;SDS011;1338;48.176;11.792;2023-01-29T04:27:56;15.80;;;12.33;;
2656;SDS011;1338;48.176;11.792;2023-01-29T04:30:34;17.60;;;13.90;;
2656;SDS011;1338;48.176;11.792;2023-01-29T04:33:10;16.97;;;13.30;;
2656;SDS011;1338;48.176;11.792;2023-01-29T04:35:53;16.37;;;12.77;;
2656;SDS011;1338;48.176;11.792;2023-01-29T04:38:34;14.40;;;11.90;;
2656;SDS011;1338;48.176;11.792;2023-01-29T04:41:15;17.33;;;13.00;;
2656;SDS011;1338;48.176;11.792;2023-01-29T04:43:51;15.90;;;11.07;;
2656;SDS011;1338;48.176;11.792;2023-01-29T04:46:28;17.83;;;12.87;;
2656;SDS011;1338;48.176;11.792;2023-01-29T04:49:05;16.17;;;11.50;;
2656;SDS011;1338;48.176;11.792;2023-01-29T04:51:45;16.50;;;12.67;;
2656;SDS011;1338;48.176;11.792;2023-01-29T04:54:18;14.87;;;11.60;;
2656;SDS011;1338;48.176;11.792;2023-01-29T04:56:53;16.40;;;12.00;;
2656;SDS011;1338;48.176;11.792;2023-01-29T04:59:29;18.43;;;12.70;;
2656;SDS011;1338;48.176;11.792;2023-01-29T05:02:02;16.20;;;12.33;;
2656;SDS011;1338;48.176;11.792;2023-01-29T05:04:32;16.70;;;12.60;;
2656;SDS011;1338;48.176;11.792;2023-01-29T05:07:03;19.20;;;13.07;;
2656;SDS011;1338;48.176;11.792;2023-01-29T05:09:35;19.07;;;13.60;;
2656;SDS011;1338;48.176;11.792;2023-01-29T05:12:06;18.20;;;13.10;;
2656;SDS011;1338;48.176;11.792;2023-01-29T05:14:36;18.23;;;12.93;;
2656;SDS011;1338;48.176;11.792;2023-01-29T05:17:09;17.70;;;11.80;;
2656;SDS011;1338;48.176;11.792;2023-01-29T05:19:42;15.77;;;13.20;;
2656;SDS011;1338;48.176;11.792;2023-01-29T05:22:12;18.57;;;13.00;;
2656;SDS011;1338;48.176;11.792;2023-01-29T05:24:43;16.23;;;12.20;;
2656;SDS011;1338;48.176;11.792;2023-01-29T05:27:13;19.07;;;12.57;;
2656;SDS011;1338;48.176;11.792;2023-01-29T05:30:03;16.87;;;11.73;;
2656;SDS011;1338;48.176;11.792;2023-01-29T05:32:31;15.40;;;11.50;;
2656;SDS011;1338;48.176;11.792;2023-01-29T05:35:00;13.47;;;9.97;;
2656;SDS011;1338;48.176;11.792;2023-01-29T05:37:29;16.43;;;12.03;;
2656;SDS011;1338;48.176;11.792;2023-01-29T05:39:58;14.63;;;11.20;;
2656;SDS011;1338;48.176;11.792;2023-01-29T05:42:26;14.90;;;10.87;;
2656;SDS011;1338;48.176;11.792;2023-01-29T05:44:55;16.37;;;11.67;;
2656;SDS011;1338;48.176;11.792;2023-01-29T05:47:23;14.10;;;11.37;;
2656;SDS011;1338;48.176;11.792;2023-01-29T05:49:51;14.73;;;11.53;;
2656;SDS011;1338;48.176;11.792;2023-01-29T05:52:19;14.80;;;10.97;;
2656;SDS011;1338;48.176;11.792;2023-01-29T05:54:49;16.50;;;12.07;;
2656;SDS011;1338;48.176;11.792;2023-01-29T05:57:17;14.20;;;10.67;;
2656;SDS011;1338;48.176;11.792;2023-01-29T05:59:45;16.20;;;11.57;;
2656;SDS011;1338;48.176;11.792;2023-01-29T06:02:13;14.50;;;10.30;;
2656;SDS011;1338;48.176;11.792;2023-01-29T06:04:42;16.30;;;11.10;;
2656;SDS011;1338;48.176;11.792;2023-01-29T06:07:10;12.87;;;10.37;;
2656;SDS011;1338;48.176;11.792;2023-01-29T06:09:38;15.17;;;11.40;;
2656;SDS011;1338;48.176;11.792;2023-01-29T06:12:07;15.37;;;11.10;;
2656;SDS011;1338;48.176;11.792;2023-01-29T06:14:36;13.23;;;11.00;;
2656;SDS011;1338;48.176;11.792;2023-01-29T06:17:04;12.90;;;10.67;;
2656;SDS011;1338;48.176;11.792;2023-01-29T06:19:32;14.50;;;11.03;;
2656;SDS011;1338;48.176;11.792;2023-01-29T06:22:01;14.87;;;11.80;;
2656;SDS011;1338;48.176;11.792;2023-01-29T06:24:29;13.87;;;11.10;;
2656;SDS011;1338;48.176;11.792;2023-01-29T06:26:58;15.00;;;11.27;;
2656;SDS011;1338;48.176;11.792;2023-01-29T06:29:27;11.47;;;9.57;;
2656;SDS011;1338;48.176;11.792;2023-01-29T06:31:55;16.50;;;11.90;;
2656;SDS011;1338;48.176;11.792;2023-01-29T06:34:24;13.83;;;11.20;;
2656;SDS011;1338;48.176;11.792;2023-01-29T06:36:52;14.13;;;10.47;;
2656;SDS011;1338;48.176;11.792;2023-01-29T06:39:21;15.07;;;11.03;;
2656;SDS011;1338;48.176;11.792;2023-01-29T06:41:49;14.27;;;10.27;;
2656;SDS011;1338;48.176;11.792;2023-01-29T06:44:17;12.60;;;10.20;;
2656;SDS011;1338;48.176;11.792;2023-01-29T06:46:47;18.10;;;11.87;;
2656;SDS011;1338;48.176;11.792;2023-01-29T06:49:15;14.57;;;11.53;;
2656;SDS011;1338;48.176;11.792;2023-01-29T06:51:43;16.87;;;11.47;;
2656;SDS011;1338;48.176;11.792;2023-01-29T06:54:11;14.10;;;10.27;;
2656;SDS011;1338;48.176;11.792;2023-01-29T06:56:40;15.47;;;11.70;;
2656;SDS011;1338;48.176;11.792;2023-01-29T06:59:09;14.70;;;11.60;;
2656;SDS011;1338;48.176;11.792;2023-01-29T07:01:37;17.50;;;11.13;;
2656;SDS011;1338;48.176;11.792;2023-01-29T07:04:09;16.30;;;11.30;;
2656;SDS011;1338;48.176;11.792;2023-01-29T07:06:37;15.20;;;11.80;;
2656;SDS011;1338;48.176;11.792;2023-01-29T07:09:05;15.37;;;12.00;;
2656;SDS011;1338;48.176;11.792;2023-01-29T07:11:33;14.30;;;10.73;;
2656;SDS011;1338;48.176;11.792;2023-01-29T07:14:03;15.60;;;11.47;;
2656;SDS011;1338;48.176;11.792;2023-01-29T07:16:32;13.60;;;10.60;;
2656;SDS011;1338;48.176;11.792;2023-01-29T07:19:00;13.17;;;10.37;;
2656;SDS011;1338;48.176;11.792;2023-01-29T07:21:30;16.87;;;11.17;;
2656;SDS011;1338;48.176;11.792;2023-01-29T07:23:58;15.47;;;10.93;;
2656;SDS011;1338;48.176;11.792;2023-01-29T07:26:26;13.03;;;10.23;;
2656;SDS011;1338;48.176;11.792;2023-01-29T07:28:55;15.17;;;10.40;;
2656;SDS011;1338;48.176;11.792;2023-01-29T07:31:23;15.43;;;11.20;;
2656;SDS011;1338;48.176;11.792;2023-01-29T07:33:51;14.17;;;10.90;;
2656;SDS011;1338;48.176;11.792;2023-01-29T07:36:20;14.17;;;10.10;;
2656;SDS011;1338;48.176;11.792;2023-01-29T07:38:50;14.00;;;10.10;;
2656;SDS011;1338;48.176;11.792;2023-01-29T07:41:19;14.57;;;11.27;;
2656;SDS011;1338;48.176;11.792;2023-01-29T07:43:47;15.97;;;10.47;;
2656;SDS011;1338;48.176;11.792;2023-01-29T07:46:15;14.27;;;10.07;;
2656;SDS011;1338;48.176;11.792;2023-01-29T07:48:43;16.50;;;10.53;;
2656;SDS011;1338;48.176;11.792;2023-01-29T07:51:11;13.63;;;10.97;;
2656;SDS011;1338;48.176;11.792;2023-01-29T07:53:40;15.80;;;10.80;;
2656;SDS011;1338;48.176;11.792;2023-01-29T07:56:11;14.60;;;10.17;;
2656;SDS011;1338;48.176;11.792;2023-01-29T07:58:39;13.60;;;10.80;;
2656;SDS011;1338;48.176;11.792;2023-01-29T08:01:07;17.40;;;12.33;;
2656;SDS011;1338;48.176;11.792;2023-01-29T08:03:35;19.07;;;15.63;;
2656;SDS011;1338;48.176;11.792;2023-01-29T08:06:03;16.00;;;12.10;;
2656;SDS011;1338;48.176;11.792;2023-01-29T08:08:32;15.93;;;10.17;;
2656;SDS011;1338;48.176;11.792;2023-01-29T08:11:00;13.87;;;10.70;;
2656;SDS011;1338;48.176;11.792;2023-01-29T08:13:31;20.00;;;13.37;;
2656;SDS011;1338;48.176;11.792;2023-01-29T08:16:00;15.40;;;11.47;;
2656;SDS011;1338;48.176;11.792;2023-01-29T08:18:28;19.93;;;11.47;;
2656;SDS011;1338;48.176;11.792;2023-01-29T08:20:58;15.93;;;12.13;;
2656;SDS011;1338;48.176;11.792;2023-01-29T08:23:27;14.97;;;11.47;;
2656;SDS011;1338;48.176;11.792;2023-01-29T08:25:55;15.70;;;10.80;;
2656;SDS011;1338;48.176;11.792;2023-01-29T08:28:23;16.80;;;11.53;;
2656;SDS011;1338;48.176;11.792;2023-01-29T08:30:53;16.23;;;11.23;;
2656;SDS011;1338;48.176;11.792;2023-01-29T08:33:21;17.23;;;11.80;;
2656;SDS011;1338;48.176;11.792;2023-01-29T08:36:04;15.47;;;10.33;;
2656;SDS011;1338;48.176;11.792;2023-01-29T08:38:33;16.07;;;11.90;;
2656;SDS011;1338;48.176;11.792;2023-01-29T08:41:02;16.43;;;11.23;;
2656;SDS011;1338;48.176;11.792;2023-01-29T08:43:31;16.40;;;10.60;;
2656;SDS011;1338;48.176;11.792;2023-01-29T08:46:02;17.70;;;11.93;;
2656;SDS011;1338;48.176;11.792;2023-01-29T08:48:31;16.47;;;11.50;;
2656;SDS011;1338;48.176;11.792;2023-01-29T08:51:00;16.53;;;11.53;;
2656;SDS011;1338;48.176;11.792;2023-01-29T08:53:29;14.43;;;10.10;;
2656;SDS011;1338;48.176;11.792;2023-01-29T08:55:58;13.00;;;9.40;;
2656;SDS011;1338;48.176;11.792;2023-01-29T08:58:26;15.07;;;10.57;;
2656;SDS011;1338;48.176;11.792;2023-01-29T09:00:55;13.70;;;10.80;;
2656;SDS011;1338;48.176;11.792;2023-01-29T09:03:24;16.50;;;11.83;;
2656;SDS011;1338;48.176;11.792;2023-01-29T09:05:53;14.40;;;10.40;;
2656;SDS011;1338;48.176;11.792;2023-01-29T09:08:21;14.00;;;10.37;;
2656;SDS011;1338;48.176;11.792;2023-01-29T09:10:49;12.37;;;9.07;;
2656;SDS011;1338;48.176;11.792;2023-01-29T09:13:17;14.93;;;10.10;;
2656;SDS011;1338;48.176;11.792;2023-01-29T09:15:46;15.67;;;10.63;;
2656;SDS011;1338;48.176;11.792;2023-01-29T09:18:14;12.80;;;9.57;;
2656;SDS011;1338;48.176;11.792;2023-01-29T09:20:43;13.10;;;9.80;;
2656;SDS011;1338;48.176;11.792;2023-01-29T09:23:11;13.80;;;10.20;;
2656;SDS011;1338;48.176;11.792;2023-01-29T09:25:41;13.20;;;10.37;;
2656;SDS011;1338;48.176;11.792;2023-01-29T09:28:09;14.77;;;10.97;;
2656;SDS011;1338;48.176;11.792;2023-01-29T09:30:37;13.20;;;9.60;;
2656;SDS011;1338;48.176;11.792;2023-01-29T09:33:06;13.83;;;10.40;;
2656;SDS011;1338;48.176;11.792;2023-01-29T09:35:34;12.60;;;10.03;;
2656;SDS011;1338;48.176;11.792;2023-01-29T09:38:05;13.90;;;10.37;;
2656;SDS011;1338;48.176;11.792;2023-01-29T09:40:34;13.70;;;9.73;;
2656;SDS011;1338;48.176;11.792;2023-01-29T09:43:11;14.43;;;10.63;;
2656;SDS011;1338;48.176;11.792;2023-01-29T09:45:44;11.03;;;8.30;;
2656;SDS011;1338;48.176;11.792;2023-01-29T09:48:20;11.53;;;9.20;;
2656;SDS011;1338;48.176;11.792;2023-01-29T09:50:52;14.70;;;10.70;;
2656;SDS011;1338;48.176;11.792;2023-01-29T09:53:28;13.37;;;10.83;;
2656;SDS011;1338;48.176;11.792;2023-01-29T09:56:03;13.93;;;9.80;;
2656;SDS011;1338;48.176;11.792;2023-01-29T09:58:37;12.57;;;9.70;;
2656;SDS011;1338;48.176;11.792;2023-01-29T10:01:11;11.17;;;9.03;;
2656;SDS011;1338;48.176;11.792;2023-01-29T10:06:50;12.50;;;9.00;;
2656;SDS011;1338;48.176;11.792;2023-01-29T10:12:32;11.70;;;9.53;;
2656;SDS011;1338;48.176;11.792;2023-01-29T10:15:12;13.10;;;10.20;;
2656;SDS011;1338;48.176;11.792;2023-01-29T10:17:54;11.67;;;10.37;;
2656;SDS011;1338;48.176;11.792;2023-01-29T10:20:42;15.00;;;9.40;;
2656;SDS011;1338;48.176;11.792;2023-01-29T10:23:21;12.00;;;9.00;;
2656;SDS011;1338;48.176;11.792;2023-01-29T10:25:54;10.60;;;9.00;;
2656;SDS011;1338;48.176;11.792;2023-01-29T10:28:24;13.17;;;10.60;;
2656;SDS011;1338;48.176;11.792;2023-01-29T10:30:56;11.87;;;8.77;;
2656;SDS011;1338;48.176;11.792;2023-01-29T10:33:29;12.77;;;9.80;;
2656;SDS011;1338;48.176;11.792;2023-01-29T10:36:25;11.97;;;9.47;;
2656;SDS011;1338;48.176;11.792;2023-01-29T10:38:59;15.33;;;10.50;;
2656;SDS011;1338;48.176;11.792;2023-01-29T10:41:33;10.80;;;9.13;;
2656;SDS011;1338;48.176;11.792;2023-01-29T10:44:18;11.30;;;9.00;;
2656;SDS011;1338;48.176;11.792;2023-01-29T10:47:09;12.80;;;9.87;;
2656;SDS011;1338;48.176;11.792;2023-01-29T10:50:00;11.37;;;8.93;;
2656;SDS011;1338;48.176;11.792;2023-01-29T10:52:43;10.60;;;9.30;;
2656;SDS011;1338;48.176;11.792;2023-01-29T10:55:26;12.07;;;9.77;;
2656;SDS011;1338;48.176;11.792;2023-01-29T10:58:05;12.30;;;9.97;;
2656;SDS011;1338;48.176;11.792;2023-01-29T11:00:41;13.70;;;9.10;;
2656;SDS011;1338;48.176;11.792;2023-01-29T11:03:13;11.90;;;9.57;;
2656;SDS011;1338;48.176;11.792;2023-01-29T11:05:55;12.57;;;10.27;;
2656;SDS011;1338;48.176;11.792;2023-01-29T11:08:30;12.37;;;9.83;;
2656;SDS011;1338;48.176;11.792;2023-01-29T11:11:05;13.40;;;11.23;;
2656;SDS011;1338;48.176;11.792;2023-01-29T11:13:37;30.53;;;18.63;;
2656;SDS011;1338;48.176;11.792;2023-01-29T11:16:09;16.70;;;12.40;;
2656;SDS011;1338;48.176;11.792;2023-01-29T11:18:48;16.47;;;11.90;;
2656;SDS011;1338;48.176;11.792;2023-01-29T11:21:18;12.20;;;9.77;;
2656;SDS011;1338;48.176;11.792;2023-01-29T11:23:47;13.03;;;9.37;;
2656;SDS011;1338;48.176;11.792;2023-01-29T11:26:16;10.13;;;8.63;;
2656;SDS011;1338;48.176;11.792;2023-01-29T11:28:49;13.23;;;9.93;;
2656;SDS011;1338;48.176;11.792;2023-01-29T11:31:19;11.33;;;10.23;;
2656;SDS011;1338;48.176;11.792;2023-01-29T11:33:49;9.13;;;7.50;;
2656;SDS011;1338;48.176;11.792;2023-01-29T11:36:21;9.27;;;8.27;;
2656;SDS011;1338;48.176;11.792;2023-01-29T11:39:09;11.00;;;8.70;;
2656;SDS011;1338;48.176;11.792;2023-01-29T11:41:41;8.63;;;7.73;;
2656;SDS011;1338;48.176;11.792;2023-01-29T11:44:18;9.60;;;7.90;;
2656;SDS011;1338;48.176;11.792;2023-01-29T11:46:48;9.27;;;8.27;;
2656;SDS011;1338;48.176;11.792;2023-01-29T11:49:21;11.73;;;9.07;;
2656;SDS011;1338;48.176;11.792;2023-01-29T11:52:01;10.20;;;8.77;;
2656;SDS011;1338;48.176;11.792;2023-01-29T11:54:33;10.97;;;8.60;;
2656;SDS011;1338;48.176;11.792;2023-01-29T11:57:05;9.60;;;8.60;;
2656;SDS011;1338;48.176;11.792;2023-01-29T11:59:57;13.50;;;10.93;;
2656;SDS011;1338;48.176;11.792;2023-01-29T12:02:34;13.77;;;9.80;;
2656;SDS011;1338;48.176;11.792;2023-01-29T12:05:05;11.33;;;10.10;;
2656;SDS011;1338;48.176;11.792;2023-01-29T12:07:42;12.97;;;10.00;;
2656;SDS011;1338;48.176;11.792;2023-01-29T12:13:05;12.67;;;10.23;;
2656;SDS011;1338;48.176;11.792;2023-01-29T12:15:48;15.50;;;11.07;;
2656;SDS011;1338;48.176;11.792;2023-01-29T12:18:21;18.40;;;14.33;;
2656;SDS011;1338;48.176;11.792;2023-01-29T12:20:57;15.27;;;11.10;;
2656;SDS011;1338;48.176;11.792;2023-01-29T12:23:30;16.93;;;11.73;;
2656;SDS011;1338;48.176;11.792;2023-01-29T12:26:05;12.13;;;9.33;;
2656;SDS011;1338;48.176;11.792;2023-01-29T12:28:43;11.90;;;9.70;;
2656;SDS011;1338;48.176;11.792;2023-01-29T12:31:27;10.73;;;8.90;;
2656;SDS011;1338;48.176;11.792;2023-01-29T12:34:04;12.63;;;9.30;;
2656;SDS011;1338;48.176;11.792;2023-01-29T12:36:40;11.23;;;8.80;;
2656;SDS011;1338;48.176;11.792;2023-01-29T12:39:18;13.83;;;10.57;;
2656;SDS011;1338;48.176;11.792;2023-01-29T12:41:49;12.63;;;10.40;;
2656;SDS011;1338;48.176;11.792;2023-01-29T12:44:23;11.47;;;9.50;;
2656;SDS011;1338;48.176;11.792;2023-01-29T12:46:59;12.67;;;10.87;;
2656;SDS011;1338;48.176;11.792;2023-01-29T12:49:31;11.13;;;9.10;;
2656;SDS011;1338;48.176;11.792;2023-01-29T12:52:03;10.87;;;9.40;;
2656;SDS011;1338;48.176;11.792;2023-01-29T12:54:40;12.30;;;9.93;;
2656;SDS011;1338;48.176;11.792;2023-01-29T12:57:17;12.00;;;8.93;;
2656;SDS011;1338;48.176;11.792;2023-01-29T12:59:51;14.87;;;12.00;;
2656;SDS011;1338;48.176;11.792;2023-01-29T13:02:26;12.10;;;9.70;;
2656;SDS011;1338;48.176;11.792;2023-01-29T13:05:00;12.17;;;9.53;;
2656;SDS011;1338;48.176;11.792;2023-01-29T13:07:34;11.63;;;10.43;;
2656;SDS011;1338;48.176;11.792;2023-01-29T13:10:08;13.60;;;11.50;;
2656;SDS011;1338;48.176;11.792;2023-01-29T13:12:48;10.33;;;8.63;;
2656;SDS011;1338;48.176;11.792;2023-01-29T13:15:21;12.17;;;10.10;;
2656;SDS011;1338;48.176;11.792;2023-01-29T13:17:55;17.50;;;13.50;;
2656;SDS011;1338;48.176;11.792;2023-01-29T13:20:29;11.57;;;9.90;;
2656;SDS011;1338;48.176;11.792;2023-01-29T13:23:03;25.87;;;10.57;;
2656;SDS011;1338;48.176;11.792;2023-01-29T13:25:49;16.40;;;14.30;;
2656;SDS011;1338;48.176;11.792;2023-01-29T13:28:18;15.27;;;13.67;;
2656;SDS011;1338;48.176;11.792;2023-01-29T13:33:40;10.53;;;8.70;;
2656;SDS011;1338;48.176;11.792;2023-01-29T13:36:19;11.27;;;9.90;;
2656;SDS011;1338;48.176;11.792;2023-01-29T13:38:53;12.50;;;9.37;;
2656;SDS011;1338;48.176;11.792;2023-01-29T13:41:32;11.93;;;9.50;;
2656;SDS011;1338;48.176;11.792;2023-01-29T13:44:04;12.20;;;9.87;;
2656;SDS011;1338;48.176;11.792;2023-01-29T13:46:37;11.40;;;10.20;;
2656;SDS011;1338;48.176;11.792;2023-01-29T13:49:20;11.03;;;9.50;;
2656;SDS011;1338;48.176;11.792;2023-01-29T13:51:57;13.87;;;10.83;;
2656;SDS011;1338;48.176;11.792;2023-01-29T13:54:40;12.03;;;10.73;;
2656;SDS011;1338;48.176;11.792;2023-01-29T13:57:32;13.10;;;10.30;;
2656;SDS011;1338;48.176;11.792;2023-01-29T14:06:39;15.83;;;11.03;;
2656;SDS011;1338;48.176;11.792;2023-01-29T14:12:32;16.10;;;12.13;;
2656;SDS011;1338;48.176;11.792;2023-01-29T14:15:22;13.70;;;11.63;;
2656;SDS011;1338;48.176;11.792;2023-01-29T14:17:59;14.13;;;10.67;;
2656;SDS011;1338;48.176;11.792;2023-01-29T14:20:36;12.83;;;8.83;;
2656;SDS011;1338;48.176;11.792;2023-01-29T14:23:21;12.60;;;10.37;;
2656;SDS011;1338;48.176;11.792;2023-01-29T14:25:55;13.30;;;10.90;;
2656;SDS011;1338;48.176;11.792;2023-01-29T14:28:27;14.40;;;11.07;;
2656;SDS011;1338;48.176;11.792;2023-01-29T14:30:57;13.77;;;11.33;;
2656;SDS011;1338;48.176;11.792;2023-01-29T14:33:27;16.33;;;12.77;;
2656;SDS011;1338;48.176;11.792;2023-01-29T14:36:02;14.00;;;10.27;;
2656;SDS011;1338;48.176;11.792;2023-01-29T14:38:33;14.43;;;11.17;;
2656;SDS011;1338;48.176;11.792;2023-01-29T14:41:04;12.60;;;10.83;;
2656;SDS011;1338;48.176;11.792;2023-01-29T14:43:40;16.47;;;12.40;;
2656;SDS011;1338;48.176;11.792;2023-01-29T14:49:09;17.10;;;12.33;;
2656;SDS011;1338;48.176;11.792;2023-01-29T14:51:37;14.33;;;12.03;;
2656;SDS011;1338;48.176;11.792;2023-01-29T14:54:15;14.80;;;12.60;;
2656;SDS011;1338;48.176;11.792;2023-01-29T14:56:52;10.70;;;8.37;;
2656;SDS011;1338;48.176;11.792;2023-01-29T14:59:27;15.37;;;12.40;;
2656;SDS011;1338;48.176;11.792;2023-01-29T15:02:00;15.07;;;11.80;;
2656;SDS011;1338;48.176;11.792;2023-01-29T15:04:40;17.00;;;12.40;;
2656;SDS011;1338;48.176;11.792;2023-01-29T15:07:22;16.13;;;13.43;;
2656;SDS011;1338;48.176;11.792;2023-01-29T15:09:59;15.17;;;11.90;;
2656;SDS011;1338;48.176;11.792;2023-01-29T15:12:49;15.93;;;12.10;;
2656;SDS011;1338;48.176;11.792;2023-01-29T15:15:24;15.63;;;11.80;;
2656;SDS011;1338;48.176;11.792;2023-01-29T15:18:02;12.00;;;10.27;;
2656;SDS011;1338;48.176;11.792;2023-01-29T15:20:35;14.93;;;13.17;;
2656;SDS011;1338;48.176;11.792;2023-01-29T15:23:21;14.73;;;11.63;;
2656;SDS011;1338;48.176;11.792;2023-01-29T15:25:52;14.77;;;11.57;;
2656;SDS011;1338;48.176;11.792;2023-01-29T15:28:23;16.90;;;12.47;;
2656;SDS011;1338;48.176;11.792;2023-01-29T15:30:53;13.43;;;10.70;;
2656;SDS011;1338;48.176;11.792;2023-01-29T15:33:22;12.87;;;10.73;;
2656;SDS011;1338;48.176;11.792;2023-01-29T15:35:54;12.97;;;10.93;;
2656;SDS011;1338;48.176;11.792;2023-01-29T15:38:35;18.17;;;10.90;;
2656;SDS011;1338;48.176;11.792;2023-01-29T15:41:15;16.50;;;12.90;;